createdAt,value
2018-02-21T00:00:24.314Z,20.12
2018-02-21T00:01:30.494Z,19.95
2018-02-21T00:02:36.696Z,20.90
2018-02-21T00:03:42.848Z,22.90
2018-02-21T00:04:49.049Z,23.00
2018-02-21T00:05:55.263Z,22.08
2018-02-21T00:07:01.457Z,21.62
2018-02-21T00:08:08.230Z,20.67
2018-02-21T00:09:14.449Z,20.25
2018-02-21T00:10:20.092Z,21.30
2018-02-21T00:11:25.965Z,21.70
2018-02-21T00:12:32.208Z,20.85
2018-02-21T00:13:38.370Z,20.48
2018-02-21T00:14:44.567Z,19.85
2018-02-21T00:15:50.454Z,20.65
2018-02-21T00:16:56.669Z,20.35
2018-02-21T00:18:02.570Z,20.00
2018-02-21T00:19:08.785Z,20.62
2018-02-21T00:20:14.989Z,20.92
2018-02-21T00:21:21.222Z,21.25
2018-02-21T00:22:27.428Z,21.60
2018-02-21T00:23:33.377Z,21.75
2018-02-21T00:24:39.577Z,20.83
2018-02-21T00:25:45.769Z,21.73
2018-02-21T00:26:51.942Z,21.48
2018-02-21T00:27:58.103Z,22.37
2018-02-21T00:29:03.919Z,21.25
2018-02-21T00:30:09.691Z,20.33
2018-02-21T00:31:15.893Z,21.60
2018-02-21T00:32:22.129Z,22.23
2018-02-21T00:33:28.293Z,21.20
2018-02-21T00:34:34.475Z,21.42
2018-02-21T00:35:40.628Z,22.40
2018-02-21T00:36:46.848Z,21.60
2018-02-21T00:37:53.029Z,23.15
2018-02-21T00:39:00.053Z,21.52
2018-02-21T00:40:06.201Z,22.25
2018-02-21T00:41:12.396Z,21.27
2018-02-21T00:42:18.585Z,21.27
2018-02-21T00:43:24.777Z,21.70
2018-02-21T00:44:30.969Z,21.33
2018-02-21T00:45:39.145Z,21.48
2018-02-21T00:46:45.336Z,22.23
2018-02-21T00:47:51.530Z,21.50
2018-02-21T00:48:57.728Z,21.45
2018-02-21T00:50:03.915Z,22.42
2018-02-21T00:51:10.156Z,21.60
2018-02-21T00:52:16.432Z,22.15
2018-02-21T00:53:22.695Z,22.17
2018-02-21T00:54:28.921Z,21.02
2018-02-21T00:55:35.127Z,21.62
2018-02-21T00:56:41.287Z,21.45
2018-02-21T00:57:47.490Z,21.20
2018-02-21T00:58:53.645Z,22.33
2018-02-21T01:00:02.691Z,20.27
2018-02-21T01:01:08.632Z,23.10
2018-02-21T01:02:14.815Z,20.62
2018-02-21T01:03:20.989Z,22.33
2018-02-21T01:04:29.043Z,21.55
2018-02-21T01:05:36.549Z,22.15
2018-02-21T01:06:43.112Z,21.02
2018-02-21T01:07:49.295Z,21.87
2018-02-21T01:08:57.459Z,22.62
2018-02-21T01:10:03.640Z,20.55
2018-02-21T01:11:09.864Z,20.40
2018-02-21T01:12:16.061Z,21.92
2018-02-21T01:13:21.959Z,20.77
2018-02-21T01:14:28.113Z,19.67
2018-02-21T01:15:34.322Z,22.00
2018-02-21T01:16:40.553Z,19.75
2018-02-21T01:17:46.773Z,20.65
2018-02-21T01:18:53.360Z,21.25
2018-02-21T01:19:59.596Z,23.00
2018-02-21T01:21:05.903Z,20.33
2018-02-21T01:22:12.074Z,20.25
2018-02-21T01:23:18.298Z,21.37
2018-02-21T01:24:27.772Z,22.13
2018-02-21T01:25:34.131Z,20.10
2018-02-21T01:26:50.731Z,20.58
2018-02-21T01:27:57.207Z,19.70
2018-02-21T01:29:03.363Z,21.27
2018-02-21T01:30:09.258Z,21.55
2018-02-21T01:31:15.657Z,20.12
2018-02-21T01:32:21.824Z,21.15
2018-02-21T01:33:27.642Z,21.45
2018-02-21T01:34:33.846Z,20.52
2018-02-21T01:35:40.058Z,19.40
2018-02-21T01:36:46.209Z,20.67
2018-02-21T01:37:52.415Z,20.90
2018-02-21T01:38:58.632Z,20.98
2018-02-21T01:40:04.857Z,21.55
2018-02-21T01:41:11.111Z,19.55
2018-02-21T01:42:17.338Z,20.50
2018-02-21T01:43:23.548Z,20.35
2018-02-21T01:44:29.704Z,19.92
2018-02-21T01:45:35.622Z,21.15
2018-02-21T01:46:41.832Z,21.33
2018-02-21T01:47:48.218Z,19.85
2018-02-21T01:48:54.416Z,21.15
2018-02-21T01:50:09.447Z,20.88
2018-02-21T01:51:15.665Z,20.12
2018-02-21T01:52:21.820Z,20.52
2018-02-21T01:53:27.977Z,20.00
2018-02-21T01:54:34.229Z,19.80
2018-02-21T01:55:40.429Z,22.17
2018-02-21T01:56:51.495Z,20.35
2018-02-21T01:57:57.646Z,22.05
2018-02-21T01:59:11.121Z,19.70
2018-02-21T02:00:17.341Z,20.62
2018-02-21T02:01:22.241Z,19.55
2018-02-21T02:02:28.445Z,20.17
2018-02-21T02:03:34.654Z,20.35
2018-02-21T02:04:40.822Z,19.85
2018-02-21T02:05:47.047Z,19.20
2018-02-21T02:06:53.005Z,20.83
2018-02-21T02:07:59.183Z,20.10
2018-02-21T02:09:04.270Z,21.70
2018-02-21T02:10:10.504Z,21.10
2018-02-21T02:11:16.720Z,19.92
2018-02-21T02:12:22.981Z,22.15
2018-02-21T02:13:29.166Z,20.95
2018-02-21T02:14:35.365Z,21.42
2018-02-21T02:15:41.537Z,21.50
2018-02-21T02:16:48.324Z,20.52
2018-02-21T02:17:54.509Z,20.05
2018-02-21T02:19:00.713Z,21.87
2018-02-21T02:20:06.934Z,20.55
2018-02-21T02:21:13.159Z,20.45
2018-02-21T02:22:19.321Z,20.37
2018-02-21T02:23:34.061Z,19.33
2018-02-21T02:24:40.265Z,21.25
2018-02-21T02:25:46.490Z,21.15
2018-02-21T02:26:52.740Z,21.20
2018-02-21T02:27:58.902Z,21.42
2018-02-21T02:29:07.000Z,20.37
2018-02-21T02:30:13.241Z,20.90
2018-02-21T02:31:19.406Z,21.75
2018-02-21T02:32:25.575Z,21.40
2018-02-21T02:33:31.796Z,21.87
2018-02-21T02:34:37.982Z,20.98
2018-02-21T02:35:44.132Z,21.15
2018-02-21T02:36:50.290Z,21.37
2018-02-21T02:37:56.613Z,21.98
2018-02-21T02:39:13.597Z,22.35
2018-02-21T02:40:19.486Z,22.23
2018-02-21T02:41:25.765Z,22.30
2018-02-21T02:42:31.945Z,20.85
2018-02-21T02:43:38.163Z,22.00
2018-02-21T02:44:44.310Z,20.62
2018-02-21T02:45:50.519Z,22.33
2018-02-21T02:46:56.447Z,22.05
2018-02-21T02:48:02.618Z,21.23
2018-02-21T02:49:08.810Z,21.67
2018-02-21T02:50:15.025Z,22.73
2018-02-21T02:51:21.252Z,20.85
2018-02-21T02:52:27.491Z,22.00
2018-02-21T02:53:33.692Z,20.90
2018-02-21T02:54:39.905Z,21.58
2018-02-21T02:55:46.373Z,22.00
2018-02-21T02:56:52.585Z,19.90
2018-02-21T02:57:58.761Z,20.30
2018-02-21T02:59:04.926Z,22.00
2018-02-21T03:00:10.272Z,20.50
2018-02-21T03:01:17.435Z,21.27
2018-02-21T03:02:23.626Z,21.70
2018-02-21T03:03:29.802Z,21.50
2018-02-21T03:04:35.994Z,22.52
2018-02-21T03:05:42.162Z,21.20
2018-02-21T03:06:48.392Z,22.10
2018-02-21T03:07:54.986Z,22.62
2018-02-21T03:09:01.217Z,21.73
2018-02-21T03:10:07.502Z,22.75
2018-02-21T03:11:13.685Z,21.50
2018-02-21T03:12:19.958Z,22.55
2018-02-21T03:13:26.158Z,21.62
2018-02-21T03:14:32.311Z,23.08
2018-02-21T03:15:38.576Z,22.50
2018-02-21T03:16:44.584Z,21.35
2018-02-21T03:17:50.986Z,22.73
2018-02-21T03:18:57.176Z,23.00
2018-02-21T03:20:03.373Z,23.20
2018-02-21T03:21:09.601Z,23.48
2018-02-21T03:22:15.822Z,21.40
2018-02-21T03:23:22.023Z,23.15
2018-02-21T03:24:28.213Z,23.17
2018-02-21T03:25:34.818Z,22.80
2018-02-21T03:26:41.152Z,21.67
2018-02-21T03:27:47.336Z,23.70
2018-02-21T03:28:53.556Z,22.20
2018-02-21T03:29:59.749Z,22.30
2018-02-21T03:31:05.960Z,23.60
2018-02-21T03:32:11.706Z,23.65
2018-02-21T03:33:17.849Z,22.73
2018-02-21T03:34:24.023Z,22.27
2018-02-21T03:35:30.586Z,23.52
2018-02-21T03:36:36.910Z,22.35
2018-02-21T03:37:43.091Z,21.45
2018-02-21T03:38:49.282Z,22.52
2018-02-21T03:39:55.497Z,23.62
2018-02-21T03:41:01.693Z,22.50
2018-02-21T03:42:07.922Z,22.52
2018-02-21T03:43:14.518Z,22.17
2018-02-21T03:44:21.156Z,24.23
2018-02-21T03:45:27.551Z,22.90
2018-02-21T03:46:33.748Z,24.92
2018-02-21T03:47:39.904Z,24.27
2018-02-21T03:48:46.134Z,23.05
2018-02-21T03:49:52.452Z,22.50
2018-02-21T03:50:58.625Z,22.20
2018-02-21T03:52:04.916Z,23.02
2018-02-21T03:53:11.097Z,23.85
2018-02-21T03:54:21.686Z,21.55
2018-02-21T03:55:29.132Z,22.10
2018-02-21T03:56:39.935Z,23.05
2018-02-21T03:57:48.898Z,22.52
2018-02-21T03:58:56.027Z,23.98
2018-02-21T04:00:02.933Z,23.58
2018-02-21T04:01:09.114Z,24.85
2018-02-21T04:02:15.904Z,23.50
2018-02-21T04:03:22.126Z,23.42
2018-02-21T04:04:28.366Z,23.58
2018-02-21T04:05:35.255Z,22.70
2018-02-21T04:06:41.447Z,23.58
2018-02-21T04:07:48.653Z,24.02
2018-02-21T04:08:54.860Z,23.60
2018-02-21T04:10:01.145Z,23.85
2018-02-21T04:11:08.259Z,23.67
2018-02-21T04:12:14.494Z,25.00
2018-02-21T04:13:20.822Z,23.15
2018-02-21T04:14:27.065Z,23.20
2018-02-21T04:15:33.252Z,23.73
2018-02-21T04:16:44.308Z,23.95
2018-02-21T04:17:50.494Z,24.25
2018-02-21T04:19:00.307Z,23.85
2018-02-21T04:20:06.452Z,24.37
2018-02-21T04:21:12.652Z,25.35
2018-02-21T04:22:18.819Z,26.37
2018-02-21T04:23:25.034Z,25.50
2018-02-21T04:24:31.311Z,24.87
2018-02-21T04:25:37.664Z,23.33
2018-02-21T04:26:43.850Z,24.02
2018-02-21T04:27:50.090Z,23.90
2018-02-21T04:28:56.334Z,22.95
2018-02-21T04:30:02.899Z,24.00
2018-02-21T04:31:09.064Z,26.17
2018-02-21T04:32:15.312Z,24.75
2018-02-21T04:33:21.516Z,24.37
2018-02-21T04:34:27.665Z,24.20
2018-02-21T04:35:33.927Z,24.20
2018-02-21T04:36:39.787Z,25.02
2018-02-21T04:37:45.993Z,24.73
2018-02-21T04:38:52.437Z,23.85
2018-02-21T04:39:59.416Z,23.80
2018-02-21T04:41:06.774Z,26.23
2018-02-21T04:42:14.922Z,24.10
2018-02-21T04:43:22.596Z,23.25
2018-02-21T04:44:29.916Z,25.65
2018-02-21T04:45:36.666Z,23.90
2018-02-21T04:46:44.134Z,23.75
2018-02-21T04:47:51.741Z,24.45
2018-02-21T04:48:58.419Z,23.65
2018-02-21T04:50:04.679Z,24.75
2018-02-21T04:51:10.858Z,23.95
2018-02-21T04:52:17.632Z,23.60
2018-02-21T04:53:25.098Z,23.77
2018-02-21T04:54:37.321Z,24.95
2018-02-21T04:57:37.169Z,24.30
2018-02-21T04:58:48.960Z,25.70
2018-02-21T04:59:55.018Z,24.63
2018-02-21T05:01:04.550Z,22.60
2018-02-21T05:02:10.617Z,24.63
2018-02-21T05:03:17.708Z,23.02
2018-02-21T05:04:23.851Z,27.30
2018-02-21T05:05:30.257Z,22.42
2018-02-21T05:06:36.260Z,23.12
2018-02-21T05:07:42.522Z,23.35
2018-02-21T05:08:49.017Z,21.70
2018-02-21T05:09:55.168Z,25.75
2018-02-21T05:11:01.381Z,25.75
2018-02-21T05:12:07.592Z,26.40
2018-02-21T05:13:13.772Z,25.70
2018-02-21T05:14:19.945Z,24.87
2018-02-21T05:15:26.090Z,25.50
2018-02-21T05:16:32.360Z,23.60
2018-02-21T05:17:38.751Z,23.02
2018-02-21T05:18:44.925Z,24.17
2018-02-21T05:19:51.156Z,25.50
2018-02-21T05:20:57.420Z,23.45
2018-02-21T05:22:03.656Z,23.98
2018-02-21T05:23:09.919Z,21.98
2018-02-21T05:24:16.118Z,23.40
2018-02-21T05:25:22.373Z,24.33
2018-02-21T05:26:28.619Z,23.62
2018-02-21T05:27:34.864Z,22.95
2018-02-21T05:28:41.060Z,24.33
2018-02-21T05:29:47.258Z,23.00
2018-02-21T05:30:53.477Z,23.02
2018-02-21T05:31:59.730Z,23.83
2018-02-21T05:33:05.941Z,23.80
2018-02-21T05:34:12.422Z,22.48
2018-02-21T05:35:18.554Z,23.83
2018-02-21T05:36:24.603Z,23.40
2018-02-21T05:37:30.780Z,23.95
2018-02-21T05:38:37.034Z,22.48
2018-02-21T05:39:43.265Z,22.98
2018-02-21T05:40:49.502Z,23.70
2018-02-21T05:41:55.660Z,23.55
2018-02-21T05:43:01.844Z,24.33
2018-02-21T05:44:07.772Z,23.55
2018-02-21T05:45:13.942Z,24.50
2018-02-21T05:46:20.187Z,24.33
2018-02-21T05:47:26.360Z,24.23
2018-02-21T05:48:32.556Z,23.98
2018-02-21T05:49:38.732Z,23.95
2018-02-21T05:50:44.912Z,25.05
2018-02-21T05:51:50.928Z,25.12
2018-02-21T05:52:57.181Z,23.38
2018-02-21T05:54:03.377Z,23.85
2018-02-21T05:55:09.531Z,24.37
2018-02-21T05:56:15.735Z,24.85
2018-02-21T05:57:21.933Z,24.27
2018-02-21T05:58:27.805Z,25.25
2018-02-21T05:59:33.986Z,25.95
2018-02-21T06:00:40.138Z,25.37
2018-02-21T06:01:46.326Z,25.30
2018-02-21T06:02:52.646Z,26.52
2018-02-21T06:03:58.894Z,24.67
2018-02-21T06:05:12.078Z,26.12
2018-02-21T06:06:18.852Z,28.40
2018-02-21T06:07:25.038Z,25.60
2018-02-21T06:08:31.253Z,24.37
2018-02-21T06:09:37.438Z,26.27
2018-02-21T06:10:43.648Z,27.05
2018-02-21T06:11:49.832Z,26.70
2018-02-21T06:12:56.071Z,28.65
2018-02-21T06:14:01.999Z,28.35
2018-02-21T06:15:08.223Z,28.90
2018-02-21T06:16:14.577Z,31.75
2018-02-21T06:17:20.714Z,31.95
2018-02-21T06:18:26.994Z,31.27
2018-02-21T06:19:33.345Z,31.48
2018-02-21T06:20:39.484Z,33.55
2018-02-21T06:21:45.678Z,33.63
2018-02-21T06:22:51.870Z,32.13
2018-02-21T06:23:58.075Z,31.67
2018-02-21T06:25:04.341Z,35.15
2018-02-21T06:26:10.698Z,34.45
2018-02-21T06:27:16.898Z,36.03
2018-02-21T06:28:23.139Z,38.67
2018-02-21T06:29:29.328Z,37.13
2018-02-21T06:30:35.858Z,34.55
2018-02-21T06:31:42.068Z,35.75
2018-02-21T06:32:49.316Z,31.55
2018-02-21T06:33:55.611Z,31.85
2018-02-21T06:35:01.855Z,30.77
2018-02-21T06:36:08.039Z,32.58
2018-02-21T06:37:14.226Z,30.98
2018-02-21T06:38:20.419Z,32.22
2018-02-21T06:39:26.628Z,31.92
2018-02-21T06:40:32.843Z,31.95
2018-02-21T06:41:39.088Z,29.25
2018-02-21T06:42:45.232Z,33.60
2018-02-21T06:43:51.498Z,31.73
2018-02-21T06:44:57.614Z,28.92
2018-02-21T06:46:03.844Z,31.77
2018-02-21T06:47:10.020Z,28.67
2018-02-21T06:48:16.173Z,31.02
2018-02-21T06:49:22.342Z,29.87
2018-02-21T06:50:28.839Z,28.80
2018-02-21T06:51:35.070Z,27.40
2018-02-21T06:52:41.671Z,30.02
2018-02-21T06:53:47.842Z,29.80
2018-02-21T06:54:53.999Z,30.30
2018-02-21T06:56:00.365Z,31.30
2018-02-21T06:57:06.546Z,29.17
2018-02-21T06:58:12.759Z,31.37
2018-02-21T06:59:19.136Z,28.62
2018-02-21T07:00:25.332Z,31.08
2018-02-21T07:01:31.585Z,29.65
2018-02-21T07:02:37.752Z,28.67
2018-02-21T07:03:43.633Z,31.05
2018-02-21T07:04:49.810Z,30.08
2018-02-21T07:05:56.023Z,29.75
2018-02-21T07:07:03.157Z,29.40
2018-02-21T07:08:11.336Z,29.73
2018-02-21T07:09:17.527Z,32.30
2018-02-21T07:10:23.748Z,30.05
2018-02-21T07:11:29.954Z,31.27
2018-02-21T07:12:36.232Z,31.15
2018-02-21T07:13:42.486Z,31.65
2018-02-21T07:14:48.754Z,31.00
2018-02-21T07:15:54.954Z,31.52
2018-02-21T07:17:01.106Z,32.25
2018-02-21T07:18:06.925Z,31.33
2018-02-21T07:19:13.115Z,31.05
2018-02-21T07:20:19.293Z,31.77
2018-02-21T07:21:25.501Z,30.95
2018-02-21T07:22:31.713Z,30.90
2018-02-21T07:23:37.861Z,33.08
2018-02-21T07:24:44.007Z,29.83
2018-02-21T07:25:50.205Z,32.60
2018-02-21T07:26:56.374Z,31.37
2018-02-21T07:28:02.590Z,29.50
2018-02-21T07:29:08.823Z,30.67
2018-02-21T07:30:14.971Z,32.53
2018-02-21T07:31:21.160Z,32.50
2018-02-21T07:32:27.347Z,29.75
2018-02-21T07:33:33.512Z,31.08
2018-02-21T07:34:39.748Z,29.55
2018-02-21T07:35:45.737Z,30.08
2018-02-21T07:36:51.971Z,29.50
2018-02-21T07:38:03.265Z,28.80
2018-02-21T07:39:09.431Z,29.58
2018-02-21T07:40:15.608Z,28.60
2018-02-21T07:41:22.028Z,29.12
2018-02-21T07:42:28.232Z,27.10
2018-02-21T07:43:34.442Z,28.08
2018-02-21T07:44:40.682Z,29.08
2018-02-21T07:45:46.937Z,28.52
2018-02-21T07:46:53.175Z,29.15
2018-02-21T07:47:59.398Z,28.45
2018-02-21T07:49:05.601Z,31.05
2018-02-21T07:50:11.745Z,31.87
2018-02-21T07:51:17.970Z,31.98
2018-02-21T07:52:24.168Z,31.30
2018-02-21T07:53:30.367Z,30.52
2018-02-21T07:54:36.528Z,31.02
2018-02-21T07:55:42.753Z,29.37
2018-02-21T07:56:48.952Z,30.00
2018-02-21T07:57:54.952Z,28.33
2018-02-21T07:59:01.093Z,29.05
2018-02-21T08:00:07.240Z,27.92
2018-02-21T08:01:13.453Z,28.02
2018-02-21T08:02:19.656Z,28.73
2018-02-21T08:03:25.900Z,29.55
2018-02-21T08:04:32.080Z,29.10
2018-02-21T08:05:38.265Z,29.30
2018-02-21T08:06:48.050Z,27.08
2018-02-21T08:07:55.292Z,26.73
2018-02-21T08:09:01.469Z,26.08
2018-02-21T08:10:07.616Z,27.10
2018-02-21T08:11:13.809Z,27.23
2018-02-21T08:12:19.962Z,28.12
2018-02-21T08:13:26.188Z,27.05
2018-02-21T08:14:32.342Z,25.95
2018-02-21T08:15:38.569Z,28.17
2018-02-21T08:16:44.721Z,29.80
2018-02-21T08:17:50.896Z,27.87
2018-02-21T08:18:57.086Z,26.65
2018-02-21T08:20:03.277Z,27.35
2018-02-21T08:21:09.226Z,28.90
2018-02-21T08:22:15.394Z,27.30
2018-02-21T08:23:21.585Z,27.73
2018-02-21T08:24:27.744Z,25.90
2018-02-21T08:25:34.012Z,27.77
2018-02-21T08:26:40.332Z,27.25
2018-02-21T08:27:47.721Z,27.60
2018-02-21T08:28:53.577Z,27.75
2018-02-21T08:29:59.786Z,27.58
2018-02-21T08:31:05.932Z,26.83
2018-02-21T08:32:11.798Z,27.20
2018-02-21T08:33:18.030Z,27.73
2018-02-21T08:34:24.477Z,28.70
2018-02-21T08:35:30.660Z,27.62
2018-02-21T08:36:36.824Z,26.40
2018-02-21T08:37:43.155Z,29.60
2018-02-21T08:38:49.333Z,27.73
2018-02-21T08:39:55.581Z,26.42
2018-02-21T08:41:01.777Z,27.67
2018-02-21T08:42:07.940Z,27.60
2018-02-21T08:43:14.152Z,26.83
2018-02-21T08:44:20.306Z,28.58
2018-02-21T08:45:26.539Z,27.37
2018-02-21T08:46:32.717Z,28.92
2018-02-21T08:47:39.832Z,27.75
2018-02-21T08:48:45.960Z,26.95
2018-02-21T08:49:52.202Z,28.30
2018-02-21T08:50:58.419Z,28.52
2018-02-21T08:52:04.944Z,29.02
2018-02-21T08:53:11.171Z,27.85
2018-02-21T08:54:17.346Z,27.15
2018-02-21T08:55:23.560Z,28.50
2018-02-21T08:56:32.730Z,28.87
2018-02-21T08:57:38.945Z,28.33
2018-02-21T08:58:45.197Z,27.65
2018-02-21T08:59:51.351Z,28.00
2018-02-21T09:00:57.517Z,28.30
2018-02-21T09:02:03.679Z,28.42
2018-02-21T09:03:09.877Z,28.08
2018-02-21T09:04:16.070Z,25.77
2018-02-21T09:05:22.288Z,26.37
2018-02-21T09:06:28.420Z,27.40
2018-02-21T09:07:34.568Z,25.88
2018-02-21T09:08:40.797Z,28.35
2018-02-21T09:09:47.003Z,26.58
2018-02-21T09:10:53.208Z,28.70
2018-02-21T09:11:59.359Z,29.95
2018-02-21T09:13:05.618Z,28.67
2018-02-21T09:14:11.816Z,30.40
2018-02-21T09:15:18.001Z,28.48
2018-02-21T09:16:24.240Z,28.12
2018-02-21T09:17:30.423Z,27.08
2018-02-21T09:18:36.634Z,27.40
2018-02-21T09:19:42.793Z,29.12
2018-02-21T09:20:49.700Z,26.45
2018-02-21T09:21:56.150Z,26.90
2018-02-21T09:23:02.400Z,28.12
2018-02-21T09:24:08.577Z,29.17
2018-02-21T09:25:14.731Z,28.12
2018-02-21T09:26:20.891Z,25.15
2018-02-21T09:27:27.064Z,28.60
2018-02-21T09:28:33.259Z,29.00
2018-02-21T09:29:39.420Z,27.85
2018-02-21T09:30:45.297Z,27.75
2018-02-21T09:31:51.447Z,30.55
2018-02-21T09:32:57.604Z,31.55
2018-02-21T09:34:03.747Z,28.00
2018-02-21T09:35:09.970Z,29.55
2018-02-21T09:36:16.134Z,30.60
2018-02-21T09:37:22.289Z,27.40
2018-02-21T09:38:28.462Z,29.48
2018-02-21T09:39:34.665Z,29.40
2018-02-21T09:40:40.869Z,29.95
2018-02-21T09:41:47.391Z,28.98
2018-02-21T09:42:53.700Z,29.27
2018-02-21T09:43:59.912Z,29.52
2018-02-21T09:45:06.189Z,29.98
2018-02-21T09:46:12.416Z,30.35
2018-02-21T09:47:18.640Z,29.95
2018-02-21T09:48:24.796Z,28.05
2018-02-21T09:49:31.133Z,31.83
2018-02-21T09:50:37.277Z,29.08
2018-02-21T09:51:43.454Z,28.45
2018-02-21T09:52:49.667Z,28.45
2018-02-21T09:53:55.869Z,29.87
2018-02-21T09:55:02.022Z,30.37
2018-02-21T09:56:08.190Z,28.98
2018-02-21T09:57:14.369Z,30.65
2018-02-21T09:58:20.806Z,27.42
2018-02-21T09:59:27.000Z,30.95
2018-02-21T10:00:33.148Z,29.60
2018-02-21T10:01:39.321Z,32.40
2018-02-21T10:02:45.540Z,28.62
2018-02-21T10:03:51.993Z,30.45
2018-02-21T10:04:58.147Z,30.70
2018-02-21T10:06:04.363Z,30.83
2018-02-21T10:07:10.806Z,31.42
2018-02-21T10:08:17.005Z,30.58
2018-02-21T10:09:23.007Z,28.35
2018-02-21T10:10:29.289Z,31.08
2018-02-21T10:11:35.534Z,29.35
2018-02-21T10:12:41.713Z,27.92
2018-02-21T10:13:47.896Z,28.12
2018-02-21T10:14:54.080Z,30.40
2018-02-21T10:16:00.260Z,28.45
2018-02-21T10:17:06.448Z,27.17
2018-02-21T10:18:12.683Z,28.27
2018-02-21T10:19:18.897Z,26.90
2018-02-21T10:20:25.107Z,28.00
2018-02-21T10:21:31.481Z,25.52
2018-02-21T10:22:37.363Z,28.38
2018-02-21T10:23:43.618Z,25.05
2018-02-21T10:24:49.801Z,28.12
2018-02-21T10:25:55.945Z,26.25
2018-02-21T10:27:02.133Z,27.15
2018-02-21T10:28:07.954Z,28.25
2018-02-21T10:29:14.155Z,27.55
2018-02-21T10:30:20.425Z,26.70
2018-02-21T10:31:26.647Z,25.27
2018-02-21T10:32:32.887Z,25.70
2018-02-21T10:33:39.032Z,27.92
2018-02-21T10:34:45.193Z,26.60
2018-02-21T10:35:51.408Z,26.52
2018-02-21T10:36:57.622Z,27.33
2018-02-21T10:38:03.775Z,27.02
2018-02-21T10:39:10.074Z,28.10
2018-02-21T10:40:16.234Z,26.30
2018-02-21T10:41:22.642Z,27.45
2018-02-21T10:42:28.843Z,26.02
2018-02-21T10:43:35.098Z,27.45
2018-02-21T10:44:46.164Z,27.23
2018-02-21T10:45:52.388Z,27.62
2018-02-21T10:47:04.825Z,25.08
2018-02-21T10:48:11.016Z,24.33
2018-02-21T10:49:17.178Z,23.00
2018-02-21T10:50:23.428Z,24.00
2018-02-21T10:51:29.580Z,27.50
2018-02-21T10:52:35.746Z,24.55
2018-02-21T10:53:42.024Z,26.40
2018-02-21T10:54:48.351Z,25.25
2018-02-21T10:55:54.569Z,25.83
2018-02-21T10:57:00.776Z,24.40
2018-02-21T10:58:06.892Z,25.58
2018-02-21T10:59:13.088Z,22.77
2018-02-21T11:00:24.564Z,23.73
2018-02-21T11:01:30.780Z,23.80
2018-02-21T11:02:36.945Z,23.90
2018-02-21T11:03:43.144Z,24.73
2018-02-21T11:04:49.288Z,24.10
2018-02-21T11:05:55.463Z,25.35
2018-02-21T11:07:01.670Z,26.62
2018-02-21T11:08:08.010Z,24.37
2018-02-21T11:09:14.157Z,23.02
2018-02-21T11:10:20.369Z,22.20
2018-02-21T11:11:26.530Z,21.48
2018-02-21T11:12:32.585Z,24.40
2018-02-21T11:13:39.162Z,23.52
2018-02-21T11:14:45.319Z,24.20
2018-02-21T11:15:51.489Z,24.42
2018-02-21T11:16:57.686Z,21.77
2018-02-21T11:18:03.928Z,24.27
2018-02-21T11:19:15.273Z,19.77
2018-02-21T11:20:21.450Z,23.90
2018-02-21T11:21:27.724Z,21.23
2018-02-21T11:22:33.883Z,20.12
2018-02-21T11:23:40.133Z,20.75
2018-02-21T11:24:46.539Z,20.52
2018-02-21T11:25:53.751Z,21.05
2018-02-21T11:26:59.945Z,20.90
2018-02-21T11:28:06.099Z,21.05
2018-02-21T11:29:12.319Z,21.48
2018-02-21T11:30:18.480Z,20.92
2018-02-21T11:31:24.697Z,21.50
2018-02-21T11:32:30.867Z,20.83
2018-02-21T11:33:37.000Z,19.80
2018-02-21T11:34:43.130Z,20.80
2018-02-21T11:35:49.378Z,19.70
2018-02-21T11:36:55.560Z,21.98
2018-02-21T11:38:01.805Z,20.35
2018-02-21T11:39:07.967Z,19.65
2018-02-21T11:40:14.101Z,18.55
2018-02-21T11:41:20.651Z,20.27
2018-02-21T11:42:26.801Z,19.45
2018-02-21T11:43:33.007Z,20.50
2018-02-21T11:44:39.283Z,19.50
2018-02-21T11:45:45.415Z,18.02
2018-02-21T11:46:51.557Z,18.10
2018-02-21T11:47:57.775Z,18.60
2018-02-21T11:49:03.936Z,17.30
2018-02-21T11:50:10.109Z,17.83
2018-02-21T11:51:16.304Z,18.67
2018-02-21T11:52:22.462Z,16.98
2018-02-21T11:53:28.628Z,16.42
2018-02-21T11:54:34.838Z,18.08
2018-02-21T11:55:41.005Z,18.02
2018-02-21T11:56:47.162Z,19.48
2018-02-21T11:57:53.400Z,20.55
2018-02-21T11:58:59.648Z,22.60
2018-02-21T12:00:05.477Z,20.45
2018-02-21T12:01:11.392Z,19.33
2018-02-21T12:02:17.548Z,19.95
2018-02-21T12:03:23.745Z,19.42
2018-02-21T12:04:29.871Z,20.15
2018-02-21T12:05:36.225Z,19.33
2018-02-21T12:06:42.384Z,19.00
2018-02-21T12:07:48.796Z,19.42
2018-02-21T12:08:55.006Z,16.65
2018-02-21T12:10:01.594Z,15.68
2018-02-21T12:11:07.735Z,15.63
2018-02-21T12:12:13.910Z,16.67
2018-02-21T12:13:19.789Z,16.08
2018-02-21T12:14:33.157Z,16.52
2018-02-21T12:15:39.304Z,15.15
2018-02-21T12:16:45.541Z,16.67
2018-02-21T12:17:51.756Z,15.77
2018-02-21T12:18:57.901Z,12.35
2018-02-21T12:20:04.141Z,15.15
2018-02-21T12:21:10.319Z,11.15
2018-02-21T12:22:16.577Z,14.87
2018-02-21T12:23:22.765Z,15.93
2018-02-21T12:24:28.965Z,14.48
2018-02-21T12:25:35.099Z,16.17
2018-02-21T12:26:41.750Z,18.40
2018-02-21T12:27:48.151Z,18.35
2018-02-21T12:28:54.296Z,19.87
2018-02-21T12:30:00.584Z,19.77
2018-02-21T12:31:06.592Z,20.58
2018-02-21T12:32:13.991Z,18.83
2018-02-21T12:33:20.191Z,18.73
2018-02-21T12:34:26.347Z,19.85
2018-02-21T12:35:32.538Z,19.48
2018-02-21T12:36:38.709Z,17.67
2018-02-21T12:37:44.885Z,18.87
2018-02-21T12:38:56.391Z,17.37
2018-02-21T12:40:02.357Z,18.25
2018-02-21T12:41:14.098Z,18.17
2018-02-21T12:42:20.234Z,18.45
2018-02-21T12:43:26.462Z,17.73
2018-02-21T12:44:32.680Z,14.63
2018-02-21T12:45:38.822Z,15.60
2018-02-21T12:46:45.012Z,14.57
2018-02-21T12:47:51.135Z,15.02
2018-02-21T12:48:57.348Z,14.10
2018-02-21T12:50:03.194Z,14.55
2018-02-21T12:51:09.073Z,15.25
2018-02-21T12:52:15.335Z,14.60
2018-02-21T12:53:21.481Z,13.70
2018-02-21T12:54:27.695Z,13.43
2018-02-21T12:55:33.901Z,14.90
2018-02-21T12:56:40.102Z,14.82
2018-02-21T12:57:46.240Z,16.52
2018-02-21T12:58:52.394Z,13.25
2018-02-21T12:59:58.599Z,14.90
2018-02-21T13:01:04.757Z,13.70
2018-02-21T13:02:10.995Z,14.15
2018-02-21T13:03:17.229Z,14.20
2018-02-21T13:04:23.391Z,13.80
2018-02-21T13:05:29.567Z,13.27
2018-02-21T13:06:35.729Z,13.30
2018-02-21T13:07:41.909Z,13.93
2018-02-21T13:08:48.053Z,13.65
2018-02-21T13:09:54.484Z,13.98
2018-02-21T13:11:00.401Z,14.40
2018-02-21T13:12:07.338Z,14.68
2018-02-21T13:13:13.452Z,14.60
2018-02-21T13:14:19.651Z,12.85
2018-02-21T13:15:26.455Z,12.90
2018-02-21T13:16:32.635Z,13.52
2018-02-21T13:17:41.630Z,13.25
2018-02-21T13:18:48.107Z,11.88
2018-02-21T13:19:54.279Z,13.73
2018-02-21T13:21:00.498Z,14.18
2018-02-21T13:22:06.698Z,12.95
2018-02-21T13:23:12.878Z,14.30
2018-02-21T13:24:19.075Z,13.80
2018-02-21T13:25:25.273Z,14.23
2018-02-21T13:26:31.775Z,14.73
2018-02-21T13:27:37.926Z,14.30
2018-02-21T13:28:44.048Z,15.07
2018-02-21T13:29:50.224Z,15.60
2018-02-21T13:30:56.427Z,15.18
2018-02-21T13:32:02.609Z,14.70
2018-02-21T13:33:08.797Z,15.60
2018-02-21T13:34:14.958Z,13.55
2018-02-21T13:35:21.179Z,14.70
2018-02-21T13:36:27.554Z,12.95
2018-02-21T13:37:33.788Z,13.30
2018-02-21T13:38:39.747Z,13.65
2018-02-21T13:39:45.924Z,13.93
2018-02-21T13:40:52.081Z,14.35
2018-02-21T13:41:58.224Z,13.73
2018-02-21T13:43:04.442Z,14.00
2018-02-21T13:44:10.614Z,13.48
2018-02-21T13:45:16.748Z,14.32
2018-02-21T13:46:22.931Z,14.50
2018-02-21T13:47:29.144Z,12.27
2018-02-21T13:48:35.296Z,14.35
2018-02-21T13:49:41.502Z,13.18
2018-02-21T13:50:47.710Z,13.02
2018-02-21T13:51:53.868Z,13.98
2018-02-21T13:53:00.056Z,13.15
2018-02-21T13:54:06.220Z,12.45
2018-02-21T13:55:12.418Z,12.07
2018-02-21T13:56:18.578Z,11.57
2018-02-21T13:57:24.727Z,13.13
2018-02-21T13:58:30.870Z,12.80
2018-02-21T13:59:37.076Z,12.10
2018-02-21T14:00:43.285Z,13.20
2018-02-21T14:01:49.495Z,12.57
2018-02-21T14:02:55.651Z,12.37
2018-02-21T14:04:01.810Z,12.37
2018-02-21T14:05:08.023Z,12.13
2018-02-21T14:06:14.193Z,12.25
2018-02-21T14:07:20.341Z,13.60
2018-02-21T14:08:26.596Z,13.40
2018-02-21T14:09:32.774Z,12.10
2018-02-21T14:10:38.992Z,12.37
2018-02-21T14:11:45.193Z,13.35
2018-02-21T14:12:51.666Z,13.77
2018-02-21T14:13:57.810Z,11.48
2018-02-21T14:15:04.025Z,12.95
2018-02-21T14:16:10.550Z,14.75
2018-02-21T14:17:16.785Z,12.32